
He/Him
Research Scientist I
Teams:
| Date Time MST |
Temp °F |
RH % |
DewPt °F |
Wind mph |
Dir ° |
Gust mph |
Dir ° |
Press in Hg |
Solar W/m^2 |
Prec in |
|---|---|---|---|---|---|---|---|---|---|---|
| 2026-05-02 10:05 | 62.5 | 17.3 | 17.5 | 1.9 | 146 | 6.3 | 140 | 24.978 | 796.0 | 0.00 |
| 2026-05-02 10:00 | 62.7 | 16.5 | 16.6 | 5.4 | 150 | 7.6 | 86 | 24.982 | 789.9 | 0.00 |
| 2026-05-02 09:55 | 62.7 | 17.8 | 18.3 | 3.5 | 155 | 6.4 | 351 | 24.989 | 782.0 | 0.00 |
| 2026-05-02 09:50 | 62.1 | 17.3 | 17.1 | 2.4 | 32 | 6.7 | 72 | 24.991 | 773.8 | 0.00 |
| 2026-05-02 09:45 | 62.0 | 18.8 | 19.0 | 4.8 | 98 | 10.4 | 107 | 24.990 | 764.4 | 0.00 |
| 2026-05-02 09:40 | 61.3 | 17.9 | 17.2 | 4.8 | 97 | 7.8 | 100 | 24.992 | 754.0 | 0.00 |
| 2026-05-02 09:35 | 61.1 | 19.8 | 19.5 | 4.8 | 86 | 10.0 | 122 | 24.996 | 743.7 | 0.00 |
| 2026-05-02 09:30 | 60.9 | 20.4 | 20.0 | 4.8 | 65 | 7.6 | 112 | 24.994 | 733.3 | 0.00 |
| 2026-05-02 09:25 | 60.8 | 22.0 | 21.7 | 4.6 | 104 | 7.5 | 113 | 24.991 | 722.9 | 0.00 |
| 2026-05-02 09:20 | 59.3 | 23.7 | 22.3 | 3.5 | 113 | 7.7 | 120 | 24.994 | 710.6 | 0.00 |
| 2026-05-02 09:15 | 59.4 | 23.8 | 22.4 | 5.7 | 82 | 8.3 | 97 | 24.995 | 700.1 | 0.00 |
| 2026-05-02 09:10 | 58.9 | 25.3 | 23.4 | 5.8 | 95 | 8.3 | 119 | 24.993 | 688.6 | 0.00 |
| 2026-05-02 09:05 | 59.1 | 25.5 | 23.8 | 5.2 | 95 | 8.4 | 90 | 24.993 | 677.1 | 0.00 |
| 2026-05-02 09:00 | 59.2 | 27.4 | 25.6 | 5.0 | 150 | 7.5 | 68 | 24.994 | 664.8 | 0.00 |
| 2026-05-02 08:55 | 58.7 | 27.4 | 25.1 | 4.5 | 110 | 8.6 | 82 | 24.993 | 652.9 | 0.00 |
| 2026-05-02 08:50 | 58.1 | 27.0 | 24.2 | 4.6 | 81 | 7.8 | 150 | 24.994 | 640.5 | 0.00 |
| 2026-05-02 08:45 | 57.4 | 27.4 | 24.1 | 3.5 | 84 | 4.8 | 138 | 24.995 | 627.7 | 0.00 |
| 2026-05-02 08:40 | 57.0 | 26.6 | 23.0 | 3.7 | 126 | 5.3 | 94 | 25.000 | 615.5 | 0.00 |
| 2026-05-02 08:35 | 56.9 | 26.8 | 23.1 | 4.3 | 115 | 7.3 | 117 | 25.001 | 603.4 | 0.00 |
| 2026-05-02 08:30 | 56.7 | 28.2 | 24.1 | 3.4 | 138 | 5.8 | 124 | 25.003 | 589.9 | 0.00 |
| 2026-05-02 08:25 | 56.2 | 28.1 | 23.6 | 3.5 | 124 | 6.2 | 91 | 25.006 | 577.0 | 0.00 |
| 2026-05-02 08:20 | 55.4 | 28.6 | 23.3 | 2.6 | 87 | 5.0 | 87 | 25.005 | 563.1 | 0.00 |
| 2026-05-02 08:15 | 55.0 | 28.8 | 23.1 | 2.6 | 107 | 5.7 | 100 | 25.006 | 549.3 | 0.00 |
| 2026-05-02 08:10 | 53.7 | 28.7 | 22.0 | 2.4 | 91 | 4.9 | 138 | 25.007 | 535.1 | 0.00 |
| 2026-05-02 08:05 | 53.5 | 29.8 | 22.7 | 2.5 | 124 | 4.3 | 150 | 25.008 | 520.5 | 0.00 |
| 2026-05-02 08:00 | 52.9 | 31.1 | 23.1 | 2.9 | 163 | 4.6 | 126 | 25.010 | 506.1 | 0.00 |
| 2026-05-02 07:55 | 52.5 | 30.2 | 22.1 | 3.1 | 94 | 5.0 | 122 | 25.011 | 491.7 | 0.00 |
| 2026-05-02 07:50 | 52.1 | 32.5 | 23.5 | 3.4 | 124 | 4.9 | 147 | 25.012 | 476.7 | 0.00 |
| 2026-05-02 07:45 | 51.7 | 32.0 | 22.8 | 3.5 | 84 | 5.6 | 98 | 25.013 | 462.1 | 0.00 |
| 2026-05-02 07:40 | 50.9 | 33.3 | 23.0 | 3.6 | 89 | 6.0 | 143 | 25.013 | 446.9 | 0.00 |
| Date Time MST |
Temp °C |
RH % |
DewPt °C |
Wind m/s |
Dir ° |
Gust m/s |
Dir ° |
Press hPa |
Solar W/m^2 |
Prec mm |
|---|---|---|---|---|---|---|---|---|---|---|
| 2026-05-02 10:05 | 17.0 | 17.3 | -8.0 | 0.8 | 146 | 2.8 | 140 | 845.85 | 796.0 | 0.00 |
| 2026-05-02 10:00 | 17.1 | 16.5 | -8.6 | 2.4 | 150 | 3.4 | 86 | 845.98 | 789.9 | 0.00 |
| 2026-05-02 09:55 | 17.1 | 17.8 | -7.6 | 1.6 | 155 | 2.9 | 351 | 846.21 | 782.0 | 0.00 |
| 2026-05-02 09:50 | 16.7 | 17.3 | -8.3 | 1.1 | 32 | 3.0 | 72 | 846.29 | 773.8 | 0.00 |
| 2026-05-02 09:45 | 16.6 | 18.8 | -7.2 | 2.2 | 98 | 4.7 | 107 | 846.27 | 764.4 | 0.00 |
| 2026-05-02 09:40 | 16.3 | 17.9 | -8.2 | 2.2 | 97 | 3.5 | 100 | 846.33 | 754.0 | 0.00 |
| 2026-05-02 09:35 | 16.2 | 19.8 | -7.0 | 2.1 | 86 | 4.5 | 122 | 846.45 | 743.7 | 0.00 |
| 2026-05-02 09:30 | 16.1 | 20.4 | -6.7 | 2.1 | 65 | 3.4 | 112 | 846.39 | 733.3 | 0.00 |
| 2026-05-02 09:25 | 16.0 | 22.0 | -5.7 | 2.0 | 104 | 3.3 | 113 | 846.29 | 722.9 | 0.00 |
| 2026-05-02 09:20 | 15.2 | 23.7 | -5.4 | 1.6 | 113 | 3.4 | 120 | 846.38 | 710.6 | 0.00 |
| 2026-05-02 09:15 | 15.2 | 23.8 | -5.4 | 2.5 | 82 | 3.7 | 97 | 846.42 | 700.1 | 0.00 |
| 2026-05-02 09:10 | 15.0 | 25.3 | -4.8 | 2.6 | 95 | 3.7 | 119 | 846.35 | 688.6 | 0.00 |
| 2026-05-02 09:05 | 15.0 | 25.5 | -4.6 | 2.3 | 95 | 3.7 | 90 | 846.36 | 677.1 | 0.00 |
| 2026-05-02 09:00 | 15.1 | 27.4 | -3.5 | 2.2 | 150 | 3.4 | 68 | 846.39 | 664.8 | 0.00 |
| 2026-05-02 08:55 | 14.8 | 27.4 | -3.8 | 2.0 | 110 | 3.8 | 82 | 846.38 | 652.9 | 0.00 |
| 2026-05-02 08:50 | 14.5 | 27.0 | -4.3 | 2.1 | 81 | 3.5 | 150 | 846.39 | 640.5 | 0.00 |
| 2026-05-02 08:45 | 14.1 | 27.4 | -4.4 | 1.6 | 84 | 2.2 | 138 | 846.44 | 627.7 | 0.00 |
| 2026-05-02 08:40 | 13.9 | 26.6 | -5.0 | 1.7 | 126 | 2.4 | 94 | 846.61 | 615.5 | 0.00 |
| 2026-05-02 08:35 | 13.9 | 26.8 | -4.9 | 1.9 | 115 | 3.3 | 117 | 846.62 | 603.4 | 0.00 |
| 2026-05-02 08:30 | 13.7 | 28.2 | -4.4 | 1.5 | 138 | 2.6 | 124 | 846.69 | 589.9 | 0.00 |
| 2026-05-02 08:25 | 13.4 | 28.1 | -4.7 | 1.6 | 124 | 2.8 | 91 | 846.80 | 577.0 | 0.00 |
| 2026-05-02 08:20 | 13.0 | 28.6 | -4.8 | 1.1 | 87 | 2.2 | 87 | 846.75 | 563.1 | 0.00 |
| 2026-05-02 08:15 | 12.8 | 28.8 | -4.9 | 1.1 | 107 | 2.5 | 100 | 846.80 | 549.3 | 0.00 |
| 2026-05-02 08:10 | 12.1 | 28.7 | -5.6 | 1.1 | 91 | 2.2 | 138 | 846.82 | 535.1 | 0.00 |
| 2026-05-02 08:05 | 11.9 | 29.8 | -5.2 | 1.1 | 124 | 1.9 | 150 | 846.87 | 520.5 | 0.00 |
| 2026-05-02 08:00 | 11.6 | 31.1 | -4.9 | 1.3 | 163 | 2.0 | 126 | 846.94 | 506.1 | 0.00 |
| 2026-05-02 07:55 | 11.4 | 30.2 | -5.5 | 1.4 | 94 | 2.2 | 122 | 846.98 | 491.7 | 0.00 |
| 2026-05-02 07:50 | 11.2 | 32.5 | -4.7 | 1.5 | 124 | 2.2 | 147 | 847.01 | 476.7 | 0.00 |
| 2026-05-02 07:45 | 11.0 | 32.0 | -5.1 | 1.6 | 84 | 2.5 | 98 | 847.03 | 462.1 | 0.00 |
| 2026-05-02 07:40 | 10.5 | 33.3 | -5.0 | 1.6 | 89 | 2.7 | 143 | 847.03 | 446.9 | 0.00 |

He/Him
Research Scientist I
Cooperative Institute for Research in the Atmosphere
Colorado State University
1375 Campus Delivery
Fort Collins, CO 80523-1375
Teams: